香港 の空港の天気 - METARとTAF

香港国際空港 ( VHHH / HKG ) - 香港 赤リョウ角
飛行場実況気象(Metar)
観測時間10/21 00:30 HKT (10/20 16:30 UTC)
風向・風速東 5m/s
視程10km以上
天気現象
少しの雲 雲底高度 760m
全天の4割程度の雲 雲底高度 910m
気温25℃
湿度74%
気圧1018hPa
METARVHHH 201630Z 10009KT 070V150 9999 FEW025 SCT030 25/20 Q1018 NOSIG
過去の天気等 Google飛行場航空写真 Wunderground天気予報

過去48時間のMETAR

飛行場予報(TAF)
発表時間: 10/20 19:00 HKT (10/20 11:00 UTC)
予報対象時間: 20日20時 HKT ~ 22日2時 HKT
風向・風速東 5m/s
視程10km以上
少しの雲 雲底高度 760m
全天の4割程度の雲 雲底高度 1070m
TAF VHHH 201100Z 2012/2118 09010KT 9999 FEW025 SCT035 TX28/2107Z TN23/2022Z